Time;durP1;ratioP1;P1;durP2;ratioP2;P2;SDS_P1;SDS_P2;PMS_P1;PMS_P2;Temp;Humidity;BMP_temperature;BMP_pressure;BME280_temperature;BME280_humidity;BME280_pressure;Samples;Min_cycle;Max_cycle;Signal;HPM_P1;HPM_P2
2023/07/13 00:00:27;;;;;;;6.87;2.60;;;;;;;24.47;76.27;97833.25;4518992;31;20115;-75
2023/07/13 00:02:54;;;;;;;5.25;2.17;;;;;;;24.47;76.34;97833.25;4519249;31;20084;-75
2023/07/13 00:05:22;;;;;;;7.95;2.33;;;;;;;24.63;75.72;97832.50;4504617;31;20152;-76
2023/07/13 00:07:50;;;;;;;5.20;2.25;;;;;;;24.50;75.84;97825.03;4519013;31;20147;-76
2023/07/13 00:10:18;;;;;;;7.25;2.40;;;;;;;24.41;76.56;97827.78;4518942;31;20087;-75
2023/07/13 00:12:45;;;;;;;7.03;2.37;;;;;;;24.67;75.46;97817.16;4504517;31;20102;-76
2023/07/13 00:15:22;;;;;;;9.10;2.70;;;;;;;24.92;74.15;97818.91;4504780;31;20139;-75
2023/07/13 00:17:50;;;;;;;6.40;2.45;;;;;;;25.02;73.37;97827.53;4505251;31;20095;-76
2023/07/13 00:20:17;;;;;;;7.05;2.60;;;;;;;25.00;72.70;97826.84;4518824;31;20096;-76
2023/07/13 00:22:44;;;;;;;8.38;2.90;;;;;;;24.66;74.29;97821.63;4519037;31;20079;-76
2023/07/13 00:25:12;;;;;;;6.20;2.58;;;;;;;24.66;74.40;97812.87;4518708;31;20135;-75
2023/07/13 00:27:43;;;;;;;5.30;2.47;;;;;;;24.69;74.64;97821.31;4518853;31;20095;-75
2023/07/13 00:30:11;;;;;;;5.43;2.53;;;;;;;24.62;75.61;97822.09;4518785;31;20610;-75
2023/07/13 00:32:38;;;;;;;7.87;2.60;;;;;;;24.67;75.08;97815.38;4518530;31;20088;-75
2023/07/13 00:35:05;;;;;;;7.28;2.87;;;;;;;24.29;76.84;97813.19;4504712;31;20106;-75
2023/07/13 00:37:35;;;;;;;6.05;2.50;;;;;;;24.14;77.58;97800.59;4504428;31;20505;-76
2023/07/13 00:40:04;;;;;;;7.65;2.67;;;;;;;23.53;80.52;97790.97;4518433;31;20187;-75
2023/07/13 00:42:32;;;;;;;4.87;2.42;;;;;;;24.09;78.45;97787.06;4518759;31;20106;-75
2023/07/13 00:45:11;;;;;;;5.65;2.50;;;;;;;23.83;78.84;97797.63;4518787;31;20245;-75
2023/07/13 00:47:39;;;;;;;6.35;2.53;;;;;;;23.77;79.13;97790.31;4518407;31;20238;-75
2023/07/13 00:50:09;;;;;;;6.10;2.30;;;;;;;23.54;81.01;97802.31;4518516;31;20095;-76
2023/07/13 00:52:38;;;;;;;5.70;2.40;;;;;;;23.55;81.22;97794.25;4518767;31;20178;-75
2023/07/13 00:55:05;;;;;;;6.40;2.60;;;;;;;23.09;83.36;97785.66;4518494;31;20118;-76
2023/07/13 00:57:33;;;;;;;8.13;2.55;;;;;;;23.31;82.58;97773.84;4518521;31;20103;-76
2023/07/13 01:00:09;;;;;;;9.80;3.00;;;;;;;22.89;84.90;97775.41;4517867;31;20096;-76
2023/07/13 01:02:39;;;;;;;7.60;2.42;;;;;;;23.19;83.91;97767.16;4491936;31;20104;-76
2023/07/13 01:05:15;;;;;;;6.90;2.62;;;;;;;22.98;85.38;97774.53;4504185;31;20381;-76
2023/07/13 01:07:43;;;;;;;6.10;2.65;;;;;;;22.75;87.19;97766.19;4518020;31;20453;-76
2023/07/13 01:10:12;;;;;;;5.75;2.33;;;;;;;23.16;83.72;97759.53;4518507;31;20110;-76
2023/07/13 01:12:39;;;;;;;7.00;2.28;;;;;;;23.18;81.40;97762.88;4520514;31;20418;-76
2023/07/13 01:15:39;;;;;;;5.43;2.50;;;;;;;22.85;83.32;97760.87;4520210;31;20126;-76
2023/07/13 01:18:09;;;;;;;6.90;2.25;;;;;;;23.23;81.13;97743.97;4520530;31;20554;-76
2023/07/13 01:20:37;;;;;;;7.45;2.33;;;;;;;22.90;82.50;97750.75;4506027;31;20146;-76
2023/07/13 01:23:06;;;;;;;8.27;2.70;;;;;;;22.65;83.75;97744.37;4505821;31;20227;-76
2023/07/13 01:25:35;;;;;;;7.53;2.80;;;;;;;22.60;84.59;97750.09;4520382;31;20159;-76
2023/07/13 01:28:06;;;;;;;7.00;2.60;;;;;;;23.02;81.35;97750.38;4519882;31;20171;-76
2023/07/13 01:30:33;;;;;;;6.37;2.40;;;;;;;22.98;81.17;97749.03;4520218;31;20119;-76
2023/07/13 01:33:00;;;;;;;5.75;2.47;;;;;;;22.86;82.04;97754.66;4520369;31;20103;-76
2023/07/13 01:35:27;;;;;;;8.52;2.50;;;;;;;22.76;82.38;97741.56;4519964;31;20083;-76
2023/07/13 01:37:54;;;;;;;5.80;2.33;;;;;;;23.14;80.02;97737.00;4505809;31;20095;-75
2023/07/13 01:40:21;;;;;;;7.78;2.42;;;;;;;23.14;80.42;97727.28;4520304;31;20445;-76
2023/07/13 01:42:48;;;;;;;6.30;2.37;;;;;;;22.82;82.16;97714.66;4519870;31;20091;-76
2023/07/13 01:45:15;;;;;;;7.50;2.90;;;;;;;22.95;81.45;97727.44;4505903;31;20109;-76
2023/07/13 01:47:42;;;;;;;7.68;2.62;;;;;;;22.81;82.33;97734.88;4520177;31;20096;-75
2023/07/13 01:50:09;;;;;;;5.87;2.50;;;;;;;22.88;82.38;97721.16;4519685;31;20092;-75
2023/07/13 01:52:36;;;;;;;6.37;2.47;;;;;;;22.89;82.35;97720.19;4505909;31;20418;-75
2023/07/13 01:55:04;;;;;;;7.00;2.45;;;;;;;23.04;81.73;97718.66;4520237;31;20653;-76
2023/07/13 01:57:31;;;;;;;8.30;2.60;;;;;;;23.09;80.65;97714.59;4519742;31;20160;-75
2023/07/13 01:59:57;;;;;;;6.60;2.50;;;;;;;22.63;83.48;97720.88;4519849;31;20100;-75
2023/07/13 02:02:24;;;;;;;6.65;2.50;;;;;;;23.17;80.75;97716.44;4520108;31;20098;-75
2023/07/13 02:04:52;;;;;;;7.68;2.83;;;;;;;22.63;83.71;97718.25;4519814;31;20084;-75
2023/07/13 02:07:19;;;;;;;7.28;3.25;;;;;;;22.89;82.85;97709.66;4519970;31;20513;-75
2023/07/13 02:09:46;;;;;;;9.23;2.72;;;;;;;23.05;81.93;97715.88;4505821;31;20096;-75
2023/07/13 02:12:13;;;;;;;6.62;2.60;;;;;;;22.72;84.17;97717.34;4519680;31;20079;-75
2023/07/13 02:14:40;;;;;;;6.05;2.60;;;;;;;22.79;83.93;97701.81;4520028;31;20138;-76
2023/07/13 02:17:06;;;;;;;8.98;2.83;;;;;;;22.82;84.65;97712.00;4519548;31;20139;-76
2023/07/13 02:19:33;;;;;;;5.68;2.35;;;;;;;22.92;83.59;97719.88;4520104;31;20130;-76
2023/07/13 02:22:00;;;;;;;5.75;2.62;;;;;;;22.68;84.66;97734.41;4519574;31;20154;-75
2023/07/13 02:24:27;;;;;;;8.93;2.80;;;;;;;22.71;84.02;97720.13;4519608;31;20114;-75
2023/07/13 02:26:54;;;;;;;7.07;2.45;;;;;;;22.93;83.15;97703.94;4519756;31;20354;-75
2023/07/13 02:29:21;;;;;;;7.18;2.65;;;;;;;22.67;84.71;97716.16;4505533;31;20453;-75
2023/07/13 02:31:48;;;;;;;6.22;2.45;;;;;;;22.59;85.68;97724.78;4519449;31;20143;-75
2023/07/13 02:34:15;;;;;;;6.78;2.58;;;;;;;22.48;86.06;97725.81;4519912;31;20083;-75
2023/07/13 02:36:42;;;;;;;6.00;2.65;;;;;;;22.64;85.51;97730.41;4519813;31;20156;-75
2023/07/13 02:39:09;;;;;;;9.25;2.72;;;;;;;22.42;87.11;97731.66;4505078;31;20179;-75
2023/07/13 02:41:36;;;;;;;6.00;2.50;;;;;;;22.24;88.14;97736.06;4505505;31;20158;-75
2023/07/13 02:44:03;;;;;;;8.32;2.80;;;;;;;22.71;86.09;97743.81;4519813;31;20472;-75
2023/07/13 02:46:32;;;;;;;6.45;2.90;;;;;;;22.84;84.26;97748.72;4519408;31;20171;-75
2023/07/13 02:48:59;;;;;;;10.30;3.35;;;;;;;22.80;83.74;97749.00;4519613;31;20441;-75
2023/07/13 02:51:26;;;;;;;7.32;2.65;;;;;;;22.84;83.04;97756.59;4505240;31;20172;-76
2023/07/13 02:53:53;;;;;;;9.48;2.90;;;;;;;22.57;85.06;97757.47;4519353;31;20084;-75
2023/07/13 02:56:25;;;;;;;5.50;2.70;;;;;;;22.55;85.75;97751.53;4505471;31;20126;-75
2023/07/13 02:58:52;;;;;;;8.60;2.78;;;;;;;22.59;85.12;97753.69;4519433;31;20119;-78
2023/07/13 03:01:21;;;;;;;8.40;2.90;;;;;;;22.30;86.79;97758.28;4519362;31;20417;-75
2023/07/13 03:03:49;;;;;;;6.78;3.20;;;;;;;22.41;86.17;97753.66;4519686;31;20093;-75
2023/07/13 03:06:17;;;;;;;6.90;3.10;;;;;;;22.57;85.48;97752.22;4519330;31;20490;-75
2023/07/13 03:08:45;;;;;;;8.57;3.10;;;;;;;22.69;84.14;97757.09;4519439;31;20160;-75
2023/07/13 03:11:14;;;;;;;7.57;3.15;;;;;;;22.52;85.14;97757.88;4519529;31;20099;-75
2023/07/13 03:13:42;;;;;;;7.43;3.20;;;;;;;22.38;86.14;97759.22;4519235;31;20184;-75
2023/07/13 03:16:10;;;;;;;8.93;3.17;;;;;;;22.52;85.14;97773.66;4519573;31;20456;-75
2023/07/13 03:18:37;;;;;;;8.82;3.42;;;;;;;22.30;86.20;97766.16;4519447;31;20140;-75
2023/07/13 03:21:05;;;;;;;6.28;3.10;;;;;;;22.08;87.98;97736.66;4519181;31;20180;-75
2023/07/13 03:23:32;;;;;;;9.13;3.03;;;;;;;22.35;86.52;97758.69;4505226;31;20142;-75
2023/07/13 03:26:11;;;;;;;7.70;3.03;;;;;;;22.28;87.58;97783.87;4519631;31;20143;-75
2023/07/13 03:28:39;;;;;;;8.35;3.10;;;;;;;22.71;86.17;97797.22;4519172;31;20207;-78
2023/07/13 03:31:09;;;;;;;8.15;3.05;;;;;;;22.74;85.92;97825.03;4505100;31;20182;-78
2023/07/13 03:33:36;;;;;;;8.07;2.70;;;;;;;22.03;89.47;97856.28;4518567;31;20155;-78
2023/07/13 03:36:05;;;;;;;8.57;3.05;;;;;;;21.74;92.16;97867.66;4491680;31;20118;-78
2023/07/13 03:38:33;;;;;;;8.18;3.00;;;;;;;21.41;95.60;97884.66;4519237;31;20122;-76
2023/07/13 03:41:00;;;;;;;9.50;3.37;;;;;;;21.57;95.97;97891.97;4505126;31;20162;-76
2023/07/13 03:43:27;;;;;;;7.65;2.60;;;;;;;21.24;99.63;97912.34;4504743;31;20154;-75
2023/07/13 03:45:55;;;;;;;7.35;2.80;;;;;;;21.52;97.78;97920.44;4519398;31;20449;-75
2023/07/13 03:48:21;;;;;;;7.90;2.95;;;;;;;21.41;98.07;97939.78;4518856;31;20102;-75
2023/07/13 03:50:49;;;;;;;6.75;2.60;;;;;;;21.29;100.00;97940.88;4519224;31;20086;-75
2023/07/13 03:53:16;;;;;;;12.50;3.42;;;;;;;21.14;100.00;97966.59;4519329;31;20097;-75
2023/07/13 03:55:44;;;;;;;7.70;2.87;;;;;;;20.97;100.00;98023.16;4518928;31;20110;-75
2023/07/13 03:58:26;;;;;;;9.00;2.60;;;;;;;20.35;100.00;98070.34;4519101;31;20111;-75
2023/07/13 04:00:54;;;;;;;9.90;2.70;;;;;;;20.25;100.00;98099.06;4519329;31;20102;-75
2023/07/13 04:03:21;;;;;;;9.38;2.58;;;;;;;19.97;100.00;98150.22;4519269;31;20075;-75
2023/07/13 04:05:48;;;;;;;6.50;1.85;;;;;;;19.67;100.00;98137.75;4519437;31;20463;-76
2023/07/13 04:08:15;;;;;;;7.00;1.87;;;;;;;19.34;100.00;98215.25;4519031;31;20108;-75
2023/07/13 04:10:43;;;;;;;3.85;1.10;;;;;;;19.02;100.00;98214.22;4518716;31;20098;-75
2023/07/13 04:13:10;;;;;;;2.83;1.00;;;;;;;19.01;100.00;98209.94;4519143;31;20076;-76
2023/07/13 04:15:38;;;;;;;3.87;1.12;;;;;;;18.89;100.00;98187.31;4519123;31;20485;-74
2023/07/13 04:18:06;;;;;;;3.60;1.00;;;;;;;18.93;100.00;98147.78;4504313;31;20509;-74
2023/07/13 04:31:19;;;;;;;3.58;1.60;;;;;;;19.50;100.00;98005.59;4505411;31;291524;-81
2023/07/13 04:33:47;;;;;;;3.37;1.33;;;;;;;19.50;100.00;98005.59;4499343;31;20144;-81
2023/07/13 04:36:15;;;;;;;3.25;1.50;;;;;;;18.77;100.00;97986.03;4499776;31;20118;-81
2023/07/13 04:38:42;;;;;;;3.47;1.70;;;;;;;18.65;100.00;97971.28;4499593;31;20485;-82
2023/07/13 04:41:09;;;;;;;6.00;1.98;;;;;;;18.84;100.00;98006.47;4499416;32;20116;-81
2023/07/13 04:43:36;;;;;;;4.72;1.80;;;;;;;18.78;100.00;98046.97;4500047;31;20100;-81
2023/07/13 04:46:09;;;;;;;4.03;1.90;;;;;;;19.07;100.00;98095.25;4499912;31;20084;-81
2023/07/13 04:48:37;;;;;;;3.70;1.77;;;;;;;18.93;100.00;98124.25;4485396;32;20147;-81
2023/07/13 04:51:04;;;;;;;5.80;1.80;;;;;;;19.22;100.00;98129.03;4499754;32;20092;-81
2023/07/13 04:53:32;;;;;;;6.50;2.03;;;;;;;19.35;100.00;98155.91;4485702;32;20084;-81
2023/07/13 04:55:59;;;;;;;5.18;2.00;;;;;;;19.30;100.00;98135.34;4499588;32;20088;-81
2023/07/13 04:58:27;;;;;;;4.30;1.87;;;;;;;19.17;100.00;98061.41;4499599;31;20088;-81
2023/07/13 05:01:00;;;;;;;5.95;2.10;;;;;;;18.93;100.00;98022.28;4499908;32;20087;-81
2023/07/13 05:03:27;;;;;;;8.10;2.12;;;;;;;18.97;100.00;97968.81;4499477;32;20087;-81
2023/07/13 05:05:58;;;;;;;4.07;1.77;;;;;;;19.07;100.00;97956.66;4500203;31;20100;-81
2023/07/13 05:08:25;;;;;;;6.12;1.98;;;;;;;18.75;100.00;97963.56;4499757;32;20167;-81
2023/07/13 05:10:52;;;;;;;5.03;1.90;;;;;;;18.74;100.00;97977.59;4485641;32;20122;-81
2023/07/13 05:13:19;;;;;;;4.62;1.80;;;;;;;18.71;100.00;97957.72;4500271;32;20159;-80
2023/07/13 05:15:55;;;;;;;5.68;2.15;;;;;;;18.90;100.00;97833.44;4499516;32;20100;-81
2023/07/13 05:18:22;;;;;;;6.82;2.22;;;;;;;18.91;100.00;97679.09;4499529;32;20149;-81
2023/07/13 05:20:57;;;;;;;9.02;1.77;;;;;;;18.48;100.00;97598.97;4485604;32;20088;-81
2023/07/13 05:23:24;;;;;;;6.32;1.87;;;;;;;18.48;100.00;97546.72;4499731;32;20092;-81
2023/07/13 05:25:51;;;;;;;4.95;2.00;;;;;;;18.58;100.00;97554.63;4500218;32;20136;-81
2023/07/13 05:28:18;;;;;;;5.78;2.03;;;;;;;18.35;100.00;97584.41;4500003;31;20084;-81
2023/07/13 05:30:46;;;;;;;5.15;1.70;;;;;;;18.33;100.00;97581.12;4496050;32;20115;-81
2023/07/13 05:33:13;;;;;;;3.58;1.58;;;;;;;18.59;100.00;97598.06;4490182;32;20103;-81
2023/07/13 05:35:40;;;;;;;4.85;1.90;;;;;;;18.76;100.00;97615.84;4490425;32;20087;-81
2023/07/13 05:38:07;;;;;;;5.72;1.70;;;;;;;18.81;100.00;97617.25;4489847;32;20176;-81
2023/07/13 05:40:34;;;;;;;2.72;1.58;;;;;;;18.86;100.00;97615.91;4490336;32;20092;-80
2023/07/13 05:43:01;;;;;;;4.22;1.42;;;;;;;18.93;100.00;97613.63;4490846;32;20069;-80
2023/07/13 05:45:28;;;;;;;5.05;2.12;;;;;;;18.86;100.00;97651.69;4490405;32;20096;-81
2023/07/13 05:47:55;;;;;;;5.22;2.08;;;;;;;18.98;100.00;97684.66;4490912;32;20100;-80
2023/07/13 05:50:22;;;;;;;5.22;1.92;;;;;;;19.53;100.00;97719.28;4475881;32;20073;-81
2023/07/13 05:52:48;;;;;;;6.93;2.00;;;;;;;20.53;100.00;97761.38;4489179;32;20114;-81
2023/07/13 05:55:15;;;;;;;5.47;2.25;;;;;;;20.88;100.00;97740.72;4488651;32;20490;-81
2023/07/13 05:57:42;;;;;;;5.82;2.00;;;;;;;20.70;100.00;97772.00;4488506;32;20148;-82
2023/07/13 06:00:10;;;;;;;4.50;1.67;;;;;;;21.27;100.00;97770.44;4489171;32;20164;-81
2023/07/13 06:02:37;;;;;;;3.90;1.75;;;;;;;21.22;100.00;97750.78;4475385;32;20112;-81
2023/07/13 06:05:05;;;;;;;5.68;2.17;;;;;;;22.00;100.00;97791.69;4488939;32;20127;-80
2023/07/13 06:07:32;;;;;;;6.43;2.10;;;;;;;22.26;100.00;97807.69;4487988;32;20172;-82
2023/07/13 06:09:59;;;;;;;4.43;2.00;;;;;;;22.27;100.00;97793.56;4487798;32;20140;-82
2023/07/13 06:12:27;;;;;;;4.62;2.00;;;;;;;23.02;96.61;97817.97;4487651;32;20122;-82
2023/07/13 06:14:53;;;;;;;4.50;1.85;;;;;;;22.85;98.01;97826.66;4487888;32;20387;-82
2023/07/13 06:17:20;;;;;;;5.20;1.70;;;;;;;23.28;95.02;97839.91;4487726;32;20114;-82
2023/07/13 06:19:47;;;;;;;4.15;1.55;;;;;;;23.54;92.21;97850.53;4473336;32;20100;-82
2023/07/13 06:22:14;;;;;;;3.05;1.55;;;;;;;23.80;88.42;97850.59;4489165;32;20088;-83
2023/07/13 06:24:41;;;;;;;8.00;1.75;;;;;;;23.41;91.31;97867.72;4488374;32;20080;-82
2023/07/13 06:27:08;;;;;;;6.22;2.00;;;;;;;23.69;89.86;97879.00;4487504;32;20127;-80
2023/07/13 06:29:35;;;;;;;4.80;2.08;;;;;;;23.32;92.18;97922.91;4487405;32;20101;-82
2023/07/13 06:32:02;;;;;;;3.62;1.90;;;;;;;22.81;95.35;97931.31;4487845;32;20128;-83
2023/07/13 06:34:28;;;;;;;4.43;1.87;;;;;;;22.85;98.48;97939.75;4487544;32;20084;-82
2023/07/13 06:36:55;;;;;;;6.47;1.90;;;;;;;23.02;96.23;97945.09;4487661;32;20180;-82
2023/07/13 06:39:22;;;;;;;3.00;1.65;;;;;;;22.99;92.62;97949.81;4487047;32;20517;-80
2023/07/13 06:41:49;;;;;;;6.30;2.00;;;;;;;22.90;95.73;97946.25;4487438;32;20083;-82
2023/07/13 06:44:16;;;;;;;5.47;1.90;;;;;;;22.96;96.14;97953.56;4487116;32;20144;-81
2023/07/13 06:46:43;;;;;;;5.37;1.87;;;;;;;22.58;96.93;97959.78;4487279;32;20105;-82
2023/07/13 06:49:10;;;;;;;2.50;1.52;;;;;;;22.03;98.43;97972.69;4487574;31;20396;-83
2023/07/13 06:51:37;;;;;;;4.37;1.70;;;;;;;21.95;97.55;97978.66;4473530;32;20116;-82
2023/07/13 06:54:04;;;;;;;4.00;1.83;;;;;;;21.85;98.86;97976.97;4489597;32;20463;-82
2023/07/13 06:56:31;;;;;;;5.15;1.83;;;;;;;21.76;100.00;97985.69;4487798;31;20133;-82
2023/07/13 06:58:58;;;;;;;6.80;1.80;;;;;;;22.03;99.80;97988.47;4488310;32;20100;-81
2023/07/13 07:01:24;;;;;;;4.53;1.60;;;;;;;21.94;100.00;97990.13;4488092;32;20158;-81
2023/07/13 07:03:51;;;;;;;7.18;1.95;;;;;;;22.22;100.00;97985.88;4487802;32;20076;-82
2023/07/13 07:06:24;;;;;;;6.60;1.90;;;;;;;22.42;98.71;97983.19;4489455;32;20084;-83
2023/07/13 07:08:52;;;;;;;4.80;1.92;;;;;;;22.49;97.54;97987.75;4475066;32;20157;-83
2023/07/13 07:11:22;;;;;;;3.97;1.87;;;;;;;22.80;96.96;97985.72;4487677;32;20144;-84
2023/07/13 07:13:49;;;;;;;4.37;2.00;;;;;;;23.07;95.19;97992.88;4487707;32;20104;-83
2023/07/13 07:16:17;;;;;;;6.45;2.17;;;;;;;23.19;95.49;97995.31;4487112;32;20141;-84
2023/07/13 07:18:44;;;;;;;3.05;1.62;;;;;;;23.62;91.65;97984.13;4487472;31;20433;-84
2023/07/13 07:21:12;;;;;;;6.45;2.03;;;;;;;23.73;89.61;97993.62;4488100;32;20112;-83
2023/07/13 07:23:39;;;;;;;4.60;2.10;;;;;;;24.16;88.22;97992.88;4475693;32;20157;-83
2023/07/13 07:26:08;;;;;;;5.25;2.03;;;;;;;24.76;84.10;97983.25;4487502;31;20155;-82
2023/07/13 07:28:39;;;;;;;7.25;2.20;;;;;;;25.28;79.39;97996.41;4487368;32;20111;-83
2023/07/13 07:31:14;;;;;;;6.20;2.20;;;;;;;25.72;80.52;97992.75;4474828;32;20104;-83
2023/07/13 07:33:44;;;;;;;5.47;2.20;;;;;;;25.59;79.81;97999.31;4488363;32;20099;-83
2023/07/13 07:36:11;;;;;;;5.80;2.30;;;;;;;25.49;79.52;98003.91;4488168;32;20082;-84
2023/07/13 07:38:42;;;;;;;5.43;2.22;;;;;;;25.34;79.79;98000.22;4487981;31;20107;-83
2023/07/13 07:41:09;;;;;;;4.95;2.33;;;;;;;25.36;79.78;98007.00;4487983;32;20088;-83
2023/07/13 07:43:39;;;;;;;7.47;2.20;;;;;;;25.30;81.56;98007.62;4487121;32;20461;-83
2023/07/13 07:46:06;;;;;;;6.20;2.60;;;;;;;25.77;77.94;98003.69;4489226;32;20530;-83
2023/07/13 07:48:33;;;;;;;6.45;2.35;;;;;;;25.74;75.85;98006.66;4488406;32;20160;-83
2023/07/13 07:51:00;;;;;;;5.97;2.30;;;;;;;25.91;76.23;98008.31;4481514;32;20172;-83
2023/07/13 07:53:27;;;;;;;7.12;2.30;;;;;;;26.05;76.16;98018.28;4474261;32;20434;-82
2023/07/13 07:55:54;;;;;;;5.22;2.33;;;;;;;26.20;73.69;98015.78;4474578;32;20464;-81
2023/07/13 07:58:24;;;;;;;3.97;2.28;;;;;;;26.17;75.21;98027.53;4471030;32;20451;-82
2023/07/13 08:00:54;;;;;;;5.10;2.20;;;;;;;26.59;72.97;98017.81;4472397;32;20088;-82
2023/07/13 08:03:23;;;;;;;6.70;2.75;;;;;;;26.71;72.57;98012.00;4475141;32;20100;-82
2023/07/13 08:05:53;;;;;;;6.32;2.20;;;;;;;27.53;69.22;98012.53;4475886;32;20085;-81
2023/07/13 08:08:24;;;;;;;6.32;2.50;;;;;;;27.36;68.53;98013.63;4472264;32;20118;-81
2023/07/13 08:10:51;;;;;;;6.70;2.28;;;;;;;28.41;66.54;98025.47;4461168;32;20111;-82
2023/07/13 08:13:38;;;;;;;5.18;2.12;;;;;;;28.47;64.03;98023.91;4478197;32;20088;-83
2023/07/13 08:16:06;;;;;;;7.22;2.33;;;;;;;28.76;62.46;98029.28;4461648;32;20057;-83
2023/07/13 08:18:33;;;;;;;4.20;1.85;;;;;;;28.89;61.86;98017.22;4462204;32;22182;-83
2023/07/13 08:21:06;;;;;;;4.07;1.80;;;;;;;29.01;59.46;98016.59;4476899;32;20111;-83
2023/07/13 08:23:33;;;;;;;4.87;1.80;;;;;;;28.91;58.64;98012.56;4478838;32;20819;-83
2023/07/13 08:26:04;;;;;;;6.30;1.92;;;;;;;29.16;57.80;98016.59;4480288;32;20124;-83
2023/07/13 08:28:32;;;;;;;4.20;1.80;;;;;;;29.40;57.42;98026.09;4476719;32;20160;-83
2023/07/13 08:31:04;;;;;;;4.10;1.85;;;;;;;28.69;56.37;98008.94;4474336;32;20085;-83
2023/07/13 08:33:31;;;;;;;4.22;1.87;;;;;;;29.28;55.81;98006.31;4477314;32;20088;-84
2023/07/13 08:35:58;;;;;;;3.92;1.73;;;;;;;29.32;55.22;98008.41;4490929;32;20108;-84
2023/07/13 08:38:25;;;;;;;5.65;1.98;;;;;;;28.84;57.60;98007.13;4498882;32;20075;-84
2023/07/13 08:40:56;;;;;;;4.68;1.80;;;;;;;29.46;55.57;98013.91;4496049;32;20165;-84
2023/07/13 08:43:35;;;;;;;5.95;1.77;;;;;;;29.79;55.24;98017.81;4493132;32;20095;-85
2023/07/13 08:46:10;;;;;;;5.60;2.00;;;;;;;30.09;54.07;98029.19;4473899;32;20053;-84
2023/07/13 08:49:14;;;;;;;6.95;1.95;;;;;;;29.71;54.63;98023.25;4488250;32;20121;-84
2023/07/13 08:51:43;;;;;;;3.50;1.60;;;;;;;29.77;54.22;98026.97;4467875;32;20088;-83
2023/07/13 08:54:32;;;;;;;4.62;1.85;;;;;;;29.95;51.85;98030.84;4471627;32;20080;-84
2023/07/13 08:57:03;;;;;;;4.00;1.77;;;;;;;29.84;53.24;98031.34;4457940;32;20115;-82
2023/07/13 08:59:32;;;;;;;5.70;1.80;;;;;;;29.99;52.13;98033.13;4457043;32;20156;-84
2023/07/13 09:02:09;;;;;;;2.92;1.60;;;;;;;29.95;51.55;98030.03;4470280;32;20104;-84
2023/07/13 09:04:42;;;;;;;3.25;1.42;;;;;;;29.70;50.96;98020.78;4470561;32;20123;-84
2023/07/13 09:07:09;;;;;;;3.25;1.60;;;;;;;29.79;51.35;98017.81;4445015;32;20080;-84
2023/07/13 09:10:10;;;;;;;3.20;1.62;;;;;;;29.55;51.55;98021.59;4472396;32;20182;-86
2023/07/13 09:12:52;;;;;;;4.53;1.70;;;;;;;30.62;47.22;98024.31;4482716;32;20104;-84
2023/07/13 09:15:28;;;;;;;5.12;1.60;;;;;;;31.16;48.51;98026.37;4473749;32;20144;-84
2023/07/13 09:17:59;;;;;;;3.67;1.40;;;;;;;30.78;49.13;98029.41;4473551;32;20107;-85
2023/07/13 09:20:37;;;;;;;2.58;1.40;;;;;;;31.32;46.00;98023.38;4460020;32;20149;-84
2023/07/13 09:23:09;;;;;;;3.62;1.52;;;;;;;30.23;48.87;98022.97;4462325;32;20100;-84
2023/07/13 09:25:38;;;;;;;3.92;1.60;;;;;;;31.15;49.02;98021.19;4464461;32;20100;-83
2023/07/13 09:28:13;;;;;;;4.03;1.45;;;;;;;31.42;45.92;98027.53;4464797;32;20736;-84
2023/07/13 09:31:03;;;;;;;3.62;1.50;;;;;;;32.32;46.52;98029.84;4464710;32;20070;-83
2023/07/13 09:33:31;;;;;;;3.28;1.40;;;;;;;32.44;45.17;98022.91;4462378;32;20438;-83
2023/07/13 09:35:58;;;;;;;2.58;1.50;;;;;;;31.29;45.02;98028.28;4460940;32;20100;-83
2023/07/13 09:38:30;;;;;;;3.25;1.87;;;;;;;31.76;46.50;98027.47;4457946;32;20088;-82
2023/07/13 09:41:03;;;;;;;3.75;1.42;;;;;;;32.13;44.19;98034.13;4456563;32;20157;-82
2023/07/13 09:43:30;;;;;;;2.55;1.40;;;;;;;32.22;44.42;98024.91;4456043;32;20158;-83
2023/07/13 09:45:57;;;;;;;2.85;1.37;;;;;;;31.67;44.92;98017.97;4457550;32;20134;-82
2023/07/13 09:48:24;;;;;;;3.25;1.30;;;;;;;31.60;43.92;98019.81;4457795;32;20076;-83
2023/07/13 09:50:56;;;;;;;4.10;1.40;;;;;;;31.67;43.74;98020.63;4458846;32;20172;-82
2023/07/13 09:53:23;;;;;;;3.08;1.37;;;;;;;31.61;42.99;98008.12;4459172;32;20836;-82
2023/07/13 09:55:50;;;;;;;4.50;1.25;;;;;;;31.23;42.52;98010.41;4460947;32;20127;-84
2023/07/13 09:58:24;;;;;;;4.57;1.42;;;;;;;31.22;42.76;98017.59;4462121;32;20069;-83
2023/07/13 10:00:59;;;;;;;4.78;1.42;;;;;;;31.86;41.28;98035.91;4459938;32;20158;-82
2023/07/13 10:03:30;;;;;;;3.08;1.40;;;;;;;31.10;42.87;98032.47;4458971;32;20109;-83
2023/07/13 10:06:16;;;;;;;4.18;1.40;;;;;;;31.76;43.15;98030.16;4469932;32;20060;-83
2023/07/13 10:08:48;;;;;;;2.70;1.35;;;;;;;31.45;41.94;98013.78;4478613;32;20060;-82
2023/07/13 10:11:20;;;;;;;2.85;1.10;;;;;;;31.29;43.62;98012.31;4480502;32;20111;-83
2023/07/13 10:13:59;;;;;;;3.67;1.23;;;;;;;31.64;40.95;98010.38;4481825;32;20053;-82
2023/07/13 10:16:32;;;;;;;3.62;1.42;;;;;;;32.10;42.10;98015.03;4477748;32;20099;-83
2023/07/13 10:19:25;;;;;;;4.55;1.70;;;;;;;32.04;41.73;98023.84;4473993;32;20514;-83
2023/07/13 10:21:56;;;;;;;3.35;1.30;;;;;;;31.88;42.56;98030.38;4474175;32;20133;-83
2023/07/13 10:24:32;;;;;;;2.83;1.42;;;;;;;32.29;41.70;98029.44;4465169;32;20065;-83
2023/07/13 10:27:20;;;;;;;3.35;1.50;;;;;;;31.86;43.50;98027.09;4463108;32;20085;-83
2023/07/13 10:29:52;;;;;;;2.33;1.30;;;;;;;31.15;42.45;98027.34;4462837;32;20118;-82
2023/07/13 10:32:22;;;;;;;2.12;1.30;;;;;;;31.81;41.37;98030.38;4461908;32;20102;-83
2023/07/13 10:34:52;;;;;;;4.75;1.40;;;;;;;31.95;41.81;98032.03;4448932;32;20154;-83
2023/07/13 10:37:24;;;;;;;3.12;1.40;;;;;;;31.76;42.86;98026.66;4470701;32;20085;-82
2023/07/13 10:39:54;;;;;;;2.75;1.30;;;;;;;32.06;42.80;98027.16;4466173;32;20128;-82
2023/07/13 10:42:30;;;;;;;5.32;1.50;;;;;;;31.21;42.00;98018.63;4464709;32;20093;-82
2023/07/13 10:44:57;;;;;;;2.80;1.37;;;;;;;31.53;42.00;98024.28;4464266;32;20153;-84
2023/07/13 10:47:24;;;;;;;3.40;1.65;;;;;;;31.48;41.10;98026.75;4466795;32;20062;-82
2023/07/13 10:49:56;;;;;;;2.40;1.30;;;;;;;31.64;42.87;98023.72;4465994;32;20061;-82
2023/07/13 10:52:40;;;;;;;3.17;1.50;;;;;;;32.17;41.97;98013.19;4465303;32;20152;-83
2023/07/13 10:55:53;;;;;;;3.90;1.50;;;;;;;32.11;42.77;98009.47;4465131;32;20443;-82
2023/07/13 10:58:22;;;;;;;4.18;1.70;;;;;;;32.34;40.96;98000.31;4440188;32;20093;-83
2023/07/13 11:01:07;;;;;;;3.72;1.60;;;;;;;32.86;42.72;98003.97;4459834;32;20111;-84
2023/07/13 11:03:59;;;;;;;4.45;1.58;;;;;;;32.42;41.62;98008.09;4460280;32;20669;-84
2023/07/13 11:06:33;;;;;;;4.40;1.50;;;;;;;31.18;43.85;97995.00;4461124;32;20089;-84
2023/07/13 11:09:21;;;;;;;3.72;1.42;;;;;;;30.57;45.71;98000.12;4459000;32;20108;-84
2023/07/13 11:11:48;;;;;;;3.87;1.77;;;;;;;31.33;44.32;98008.22;4460591;32;20061;-84
2023/07/13 11:14:38;;;;;;;3.00;1.70;;;;;;;31.81;43.43;98006.38;4460298;32;20096;-84
2023/07/13 11:17:27;;;;;;;2.62;1.50;;;;;;;31.59;44.28;98007.50;4464389;32;20106;-83
2023/07/13 11:20:09;;;;;;;3.90;1.50;;;;;;;31.87;43.88;98010.88;4460906;32;20134;-84
2023/07/13 11:22:47;;;;;;;3.28;1.80;;;;;;;32.03;41.93;98012.37;4456263;32;20085;-84
2023/07/13 11:25:37;;;;;;;3.25;1.60;;;;;;;32.46;43.93;98023.53;4456709;32;20119;-84
2023/07/13 11:28:10;;;;;;;3.35;1.73;;;;;;;32.34;42.63;98021.66;4454538;32;20096;-83
2023/07/13 11:30:48;;;;;;;3.67;1.62;;;;;;;31.78;43.33;98022.75;4466864;32;20081;-83
2023/07/13 11:33:39;;;;;;;4.10;1.85;;;;;;;31.32;44.15;98015.38;4457613;32;20669;-83
2023/07/13 11:36:13;;;;;;;4.37;1.60;;;;;;;31.22;44.07;98019.44;4471308;32;20537;-83
2023/07/13 11:38:47;;;;;;;3.62;1.60;;;;;;;30.98;45.58;98024.19;4457535;32;20184;-83
2023/07/13 11:41:20;;;;;;;2.45;1.40;;;;;;;30.48;45.82;98012.75;4457344;32;20102;-83
2023/07/13 11:43:51;;;;;;;4.25;1.73;;;;;;;31.09;46.31;98010.31;4457467;32;20442;-83
2023/07/13 11:46:27;;;;;;;4.15;1.60;;;;;;;31.12;45.04;98008.28;4457364;32;20156;-83
2023/07/13 11:48:54;;;;;;;4.40;1.58;;;;;;;31.24;44.16;98009.38;4457378;32;20105;-83
2023/07/13 11:51:24;;;;;;;2.60;1.45;;;;;;;30.91;45.39;98020.66;4457584;32;20156;-83
2023/07/13 11:53:53;;;;;;;3.75;1.58;;;;;;;31.07;44.95;98025.69;4471679;32;20080;-83
2023/07/13 11:56:24;;;;;;;5.28;1.73;;;;;;;31.42;44.52;98032.88;4457954;32;20112;-83